Ocean Navigator — WSC2552 — position and weather

sailwx.info

Track history (hours):
 
Tides and Currents Weather Stations Pressure Air Temp Water Temp Dewpoint Dewpoint Depression Visibility Wind Speed Wind Dir Waves Ship Positions

Ocean Navigator

Owner: OCEAN NAVIGATOR INC, SEATTLE, WA. More information available from US FCC via Universal Licensing System and Coast Guard Vessel Documentation Center.

Last reported at 2016-Jun-24 17:33 UTC. Time now 2016-Jun-28 05:59 UTC.
Position N 47°40' W 122°23'.

Type: Tow > 200 m length. MMSI: 366358000.

Date/timePositionNaut miles runAvg speedWind from/ knotsBaromVisibWave heightAir tempDewpointWater temp
2016-Jun-24 17:33N 47°40' W 122°23'4 3.5
2016-Jun-24 16:33N 47°36' W 122°23'3 2.8
2016-Jun-24 15:33N 47°34' W 122°21'5 4.6
2016-Jun-24 14:33N 47°37' W 122°25'6 5.9
2016-Jun-24 13:33N 47°43' W 122°28'6 5.6
2016-Jun-24 12:33N 47°48' W 122°28'6 6.1
2016-Jun-24 11:33N 47°54' W 122°30'6 6.1
2016-Jun-24 10:32N 47°59' W 122°36'13 5.9
2016-Jun-24 08:26N 48°10' W 122°46'31 8.1
2016-Jun-24 04:33N 48°41' W 122°44'9 8.9
2016-Jun-24 03:33N 48°47' W 122°53'9 8.9
2016-Jun-24 02:33N 48°52' W 123°05'9 9.2
2016-Jun-24 01:33N 48°58' W 123°15'8 8.4
2016-Jun-24 00:33N 49°04' W 123°24'8 8.2
2016-Jun-23 23:33N 49°10' W 123°32'9 8.8
2016-Jun-23 22:33N 49°16' W 123°42'9 8.7
2016-Jun-23 21:33N 49°22' W 123°51'8 8.5
2016-Jun-23 20:33N 49°27' W 124°03'9 8.8
2016-Jun-23 19:33N 49°31' W 124°14'9 8.8
2016-Jun-23 18:33N 49°36' W 124°26'9 9.0
2016-Jun-23 17:33N 49°41' W 124°37'9 8.9
2016-Jun-23 16:33N 49°46' W 124°48'9 9.0
2016-Jun-23 15:33N 49°52' W 124°59'9 9.6
2016-Jun-23 14:34N 49°58' W 125°11'1110.9
2016-Jun-23 13:33N 50°07' W 125°19'1010.1
2016-Jun-23 12:33N 50°17' W 125°24'68 9.0
2016-Jun-23 05:04N 50°43' W 127°02'5 9.5
2016-Jun-23 04:33N 50°45' W 127°09'10 9.7
2016-Jun-23 03:33N 50°52' W 127°20'9 8.7
2016-Jun-23 02:33N 50°58' W 127°30'9 8.7
2016-Jun-23 01:32N 51°04' W 127°41'10 9.4
2016-Jun-23 00:30N 51°11' W 127°51'1310.2
2016-Jun-22 23:12N 51°23' W 127°60'  
2016-Jun-19 16:26N 51°34' W 127°53'25 8.7
2016-Jun-19 13:32N 51°09' W 127°49'9 9.3
2016-Jun-19 12:33N 51°03' W 127°39'9 9.4
2016-Jun-19 11:33N 50°57' W 127°28'10 9.8
2016-Jun-19 10:33N 50°50' W 127°16'21 8.6
2016-Jun-19 08:05N 50°38' W 126°48'5 8.6
2016-Jun-19 07:30N 50°35' W 126°42'50 9.2
2016-Jun-19 02:08N 50°21' W 125°27'610.1
2016-Jun-19 01:33N 50°15' W 125°23'9 8.9
2016-Jun-19 00:33N 50°07' W 125°19'8 7.6
2016-Jun-18 23:33N 50°00' W 125°13'8 8.1
2016-Jun-18 22:33N 49°55' W 125°04'10 9.7
2016-Jun-18 21:33N 49°49' W 124°52'8 8.2
2016-Jun-18 20:33N 49°43' W 124°42'9 9.1
2016-Jun-18 19:33N 49°38' W 124°31'10 9.6
2016-Jun-18 18:33N 49°33' W 124°18'10 9.6
2016-Jun-18 17:34N 49°27' W 124°06'9 9.2
2016-Jun-18 16:33N 49°21' W 123°55'9 8.8
2016-Jun-18 15:33N 49°16' W 123°45'9 8.8
2016-Jun-18 14:33N 49°11' W 123°34'8 8.6
2016-Jun-18 13:33N 49°06' W 123°23'9 8.8
2016-Jun-18 12:33N 48°60' W 123°13'8 8.5
2016-Jun-18 11:33N 48°54' W 123°04'9 8.9
2016-Jun-18 10:33N 48°48' W 122°53'9 9.4
2016-Jun-18 09:33N 48°42' W 122°43'9 9.1
2016-Jun-18 08:33N 48°33' W 122°45'10 9.9
2016-Jun-18 07:32N 48°23' W 122°45'18 8.4
2016-Jun-18 05:21N 48°05' W 122°38'810.4
2016-Jun-18 04:33N 47°58' W 122°33'10 9.8
2016-Jun-18 03:33N 47°49' W 122°26'10 9.8
2016-Jun-18 02:33N 47°39' W 122°27'7 6.8
2016-Jun-18 01:32N 47°34' W 122°21'1 0.5
2016-Jun-18 00:33N 47°33' W 122°20'0 0.0
2016-Jun-17 23:33N 47°33' W 122°20'0 0.0
2016-Jun-17 22:33N 47°33' W 122°20'5 5.5
2016-Jun-17 21:33N 47°38' W 122°25'2 2.5
2016-Jun-17 20:33N 47°40' W 122°24'1 1.4
2016-Jun-17 19:33N 47°39' W 122°22'0 0.0
2016-Jun-17 18:33N 47°39' W 122°22'0 0.0
2016-Jun-17 17:33N 47°39' W 122°22'1 0.1
2016-Jun-17 08:14N 47°40' W 122°24'3 4.3
2016-Jun-17 07:33N 47°37' W 122°24'2 1.9
2016-Jun-17 06:33N 47°36' W 122°22'5 4.7
2016-Jun-17 05:33N 47°33' W 122°28'9 8.6
2016-Jun-17 04:33N 47°24' W 122°32'9 8.7
2016-Jun-17 03:33N 47°16' W 122°33'9 8.2
2016-Jun-17 02:30N 47°08' W 122°39'0 0.1
2016-Jun-17 01:28N 47°08' W 122°39'1 0.7
2016-Jun-17 00:33N 47°09' W 122°38'0 0.0
2016-Jun-16 19:17N 47°09' W 122°38'1 0.7
2016-Jun-16 18:27N 47°08' W 122°39'1 1.5
2016-Jun-16 17:33N 47°09' W 122°39'9 8.8
2016-Jun-16 16:33N 47°17' W 122°32'8 8.0
2016-Jun-16 15:33N 47°25' W 122°31'9 8.7
2016-Jun-16 14:33N 47°34' W 122°28'9 9.3
2016-Jun-16 13:33N 47°43' W 122°30'1 0.7
2016-Jun-16 12:33N 47°43' W 122°29'5 5.1
2016-Jun-16 11:33N 47°40' W 122°23'1 0.9
2016-Jun-16 10:31N 47°39' W 122°22'0 0.0
2016-Jun-16 09:32N 47°39' W 122°22'0 0.0
2016-Jun-16 08:33N 47°39' W 122°22'0 0.0
2016-Jun-16 07:33N 47°39' W 122°22'0 0.0
2016-Jun-16 06:33N 47°39' W 122°22'0 0.0
2016-Jun-16 05:33N 47°39' W 122°22'0 0.0
2016-Jun-16 04:33N 47°39' W 122°22'0 0.0
2016-Jun-15 16:14N 47°39' W 122°22'1 1.7
2016-Jun-15 15:33N 47°40' W 122°23'0 0.0
2016-Jun-15 14:33N 47°40' W 122°23'2 2.5
2016-Jun-15 13:33N 47°38' W 122°25'2 2.1
2016-Jun-15 12:33N 47°36' W 122°23'5 4.7
2016-Jun-15 11:33N 47°39' W 122°28'5 5.5
2016-Jun-15 10:33N 47°45' W 122°27'9 9.2
2016-Jun-15 09:33N 47°54' W 122°30'31 9.1
2016-Jun-15 06:10N 48°23' W 122°46'6 9.4
2016-Jun-15 05:33N 48°28' W 122°45'9 9.4
2016-Jun-15 04:33N 48°38' W 122°44'9 9.0
2016-Jun-15 03:33N 48°46' W 122°50'10 9.6
2016-Jun-15 02:33N 48°52' W 123°02'10 9.9
2016-Jun-15 01:33N 48°57' W 123°14'1010.0
2016-Jun-15 00:33N 49°05' W 123°24'1010.2
2016-Jun-14 23:33N 49°15' W 123°21'8 8.3
2016-Jun-14 22:33N 49°19' W 123°10'3 3.3
2016-Jun-14 21:33N 49°18' W 123°05'0 0.0
2016-Jun-14 20:33N 49°18' W 123°05'0 0.0
2016-Jun-14 19:33N 49°18' W 123°05'5 4.8
2016-Jun-14 18:33N 49°19' W 123°12'1010.2
2016-Jun-14 17:34N 49°10' W 123°19'  
Track history (hours):
 
Tides and Currents Weather Stations Pressure Air Temp Water Temp Dewpoint Dewpoint Depression Visibility Wind Speed Wind Dir Waves Ship Positions

Ocean Navigator

Owner: OCEAN NAVIGATOR INC, SEATTLE, WA. More information available from US FCC via Universal Licensing System and Coast Guard Vessel Documentation Center.

Last reported at 2016-Jun-24 17:33 UTC. Time now 2016-Jun-28 05:59 UTC.
Position N 47°40' W 122°23'.

Type: Tow > 200 m length. MMSI: 366358000.

Date/timePositionNaut miles runAvg speedWind from/ knotsBaromVisibWave heightAir tempDewpointWater temp
2016-Jun-24 17:33N 47°40' W 122°23'4 3.5
2016-Jun-24 16:33N 47°36' W 122°23'3 2.8
2016-Jun-24 15:33N 47°34' W 122°21'5 4.6
2016-Jun-24 14:33N 47°37' W 122°25'6 5.9
2016-Jun-24 13:33N 47°43' W 122°28'6 5.6
2016-Jun-24 12:33N 47°48' W 122°28'6 6.1
2016-Jun-24 11:33N 47°54' W 122°30'6 6.1
2016-Jun-24 10:32N 47°59' W 122°36'13 5.9
2016-Jun-24 08:26N 48°10' W 122°46'31 8.1
2016-Jun-24 04:33N 48°41' W 122°44'9 8.9
2016-Jun-24 03:33N 48°47' W 122°53'9 8.9
2016-Jun-24 02:33N 48°52' W 123°05'9 9.2
2016-Jun-24 01:33N 48°58' W 123°15'8 8.4
2016-Jun-24 00:33N 49°04' W 123°24'8 8.2
2016-Jun-23 23:33N 49°10' W 123°32'9 8.8
2016-Jun-23 22:33N 49°16' W 123°42'9 8.7
2016-Jun-23 21:33N 49°22' W 123°51'8 8.5
2016-Jun-23 20:33N 49°27' W 124°03'9 8.8
2016-Jun-23 19:33N 49°31' W 124°14'9 8.8
2016-Jun-23 18:33N 49°36' W 124°26'9 9.0
2016-Jun-23 17:33N 49°41' W 124°37'9 8.9
2016-Jun-23 16:33N 49°46' W 124°48'9 9.0
2016-Jun-23 15:33N 49°52' W 124°59'9 9.6
2016-Jun-23 14:34N 49°58' W 125°11'1110.9
2016-Jun-23 13:33N 50°07' W 125°19'1010.1
2016-Jun-23 12:33N 50°17' W 125°24'68 9.0
2016-Jun-23 05:04N 50°43' W 127°02'5 9.5
2016-Jun-23 04:33N 50°45' W 127°09'10 9.7
2016-Jun-23 03:33N 50°52' W 127°20'9 8.7
2016-Jun-23 02:33N 50°58' W 127°30'9 8.7
2016-Jun-23 01:32N 51°04' W 127°41'10 9.4
2016-Jun-23 00:30N 51°11' W 127°51'1310.2
2016-Jun-22 23:12N 51°23' W 127°60'  
2016-Jun-19 16:26N 51°34' W 127°53'25 8.7
2016-Jun-19 13:32N 51°09' W 127°49'9 9.3
2016-Jun-19 12:33N 51°03' W 127°39'9 9.4
2016-Jun-19 11:33N 50°57' W 127°28'10 9.8
2016-Jun-19 10:33N 50°50' W 127°16'21 8.6
2016-Jun-19 08:05N 50°38' W 126°48'5 8.6
2016-Jun-19 07:30N 50°35' W 126°42'50 9.2
2016-Jun-19 02:08N 50°21' W 125°27'610.1
2016-Jun-19 01:33N 50°15' W 125°23'9 8.9
2016-Jun-19 00:33N 50°07' W 125°19'8 7.6
2016-Jun-18 23:33N 50°00' W 125°13'8 8.1
2016-Jun-18 22:33N 49°55' W 125°04'10 9.7
2016-Jun-18 21:33N 49°49' W 124°52'8 8.2
2016-Jun-18 20:33N 49°43' W 124°42'9 9.1
2016-Jun-18 19:33N 49°38' W 124°31'10 9.6
2016-Jun-18 18:33N 49°33' W 124°18'10 9.6
2016-Jun-18 17:34N 49°27' W 124°06'9 9.2
2016-Jun-18 16:33N 49°21' W 123°55'9 8.8
2016-Jun-18 15:33N 49°16' W 123°45'9 8.8
2016-Jun-18 14:33N 49°11' W 123°34'8 8.6
2016-Jun-18 13:33N 49°06' W 123°23'9 8.8
2016-Jun-18 12:33N 48°60' W 123°13'8 8.5
2016-Jun-18 11:33N 48°54' W 123°04'9 8.9
2016-Jun-18 10:33N 48°48' W 122°53'9 9.4
2016-Jun-18 09:33N 48°42' W 122°43'9 9.1
2016-Jun-18 08:33N 48°33' W 122°45'10 9.9
2016-Jun-18 07:32N 48°23' W 122°45'18 8.4
2016-Jun-18 05:21N 48°05' W 122°38'810.4
2016-Jun-18 04:33N 47°58' W 122°33'10 9.8
2016-Jun-18 03:33N 47°49' W 122°26'10 9.8
2016-Jun-18 02:33N 47°39' W 122°27'7 6.8
2016-Jun-18 01:32N 47°34' W 122°21'1 0.5
2016-Jun-18 00:33N 47°33' W 122°20'0 0.0
2016-Jun-17 23:33N 47°33' W 122°20'0 0.0
2016-Jun-17 22:33N 47°33' W 122°20'5 5.5
2016-Jun-17 21:33N 47°38' W 122°25'2 2.5
2016-Jun-17 20:33N 47°40' W 122°24'1 1.4
2016-Jun-17 19:33N 47°39' W 122°22'0 0.0
2016-Jun-17 18:33N 47°39' W 122°22'0 0.0
2016-Jun-17 17:33N 47°39' W 122°22'1 0.1
2016-Jun-17 08:14N 47°40' W 122°24'3 4.3
2016-Jun-17 07:33N 47°37' W 122°24'2 1.9
2016-Jun-17 06:33N 47°36' W 122°22'5 4.7
2016-Jun-17 05:33N 47°33' W 122°28'9 8.6
2016-Jun-17 04:33N 47°24' W 122°32'9 8.7
2016-Jun-17 03:33N 47°16' W 122°33'9 8.2
2016-Jun-17 02:30N 47°08' W 122°39'0 0.1
2016-Jun-17 01:28N 47°08' W 122°39'1 0.7
2016-Jun-17 00:33N 47°09' W 122°38'0 0.0
2016-Jun-16 19:17N 47°09' W 122°38'1 0.7
2016-Jun-16 18:27N 47°08' W 122°39'1 1.5
2016-Jun-16 17:33N 47°09' W 122°39'9 8.8
2016-Jun-16 16:33N 47°17' W 122°32'8 8.0
2016-Jun-16 15:33N 47°25' W 122°31'9 8.7
2016-Jun-16 14:33N 47°34' W 122°28'9 9.3
2016-Jun-16 13:33N 47°43' W 122°30'1 0.7
2016-Jun-16 12:33N 47°43' W 122°29'5 5.1
2016-Jun-16 11:33N 47°40' W 122°23'1 0.9
2016-Jun-16 10:31N 47°39' W 122°22'0 0.0
2016-Jun-16 09:32N 47°39' W 122°22'0 0.0
2016-Jun-16 08:33N 47°39' W 122°22'0 0.0
2016-Jun-16 07:33N 47°39' W 122°22'0 0.0
2016-Jun-16 06:33N 47°39' W 122°22'0 0.0
2016-Jun-16 05:33N 47°39' W 122°22'0 0.0
2016-Jun-16 04:33N 47°39' W 122°22'0 0.0
2016-Jun-15 16:14N 47°39' W 122°22'1 1.7
2016-Jun-15 15:33N 47°40' W 122°23'0 0.0
2016-Jun-15 14:33N 47°40' W 122°23'2 2.5
2016-Jun-15 13:33N 47°38' W 122°25'2 2.1
2016-Jun-15 12:33N 47°36' W 122°23'5 4.7
2016-Jun-15 11:33N 47°39' W 122°28'5 5.5
2016-Jun-15 10:33N 47°45' W 122°27'9 9.2
2016-Jun-15 09:33N 47°54' W 122°30'31 9.1
2016-Jun-15 06:10N 48°23' W 122°46'6 9.4
2016-Jun-15 05:33N 48°28' W 122°45'9 9.4
2016-Jun-15 04:33N 48°38' W 122°44'9 9.0
2016-Jun-15 03:33N 48°46' W 122°50'10 9.6
2016-Jun-15 02:33N 48°52' W 123°02'10 9.9
2016-Jun-15 01:33N 48°57' W 123°14'1010.0
2016-Jun-15 00:33N 49°05' W 123°24'1010.2
2016-Jun-14 23:33N 49°15' W 123°21'8 8.3
2016-Jun-14 22:33N 49°19' W 123°10'3 3.3
2016-Jun-14 21:33N 49°18' W 123°05'0 0.0
2016-Jun-14 20:33N 49°18' W 123°05'0 0.0
2016-Jun-14 19:33N 49°18' W 123°05'5 4.8
2016-Jun-14 18:33N 49°19' W 123°12'1010.2
2016-Jun-14 17:34N 49°10' W 123°19'  

Dump ship's entire track history